Time;durP1;ratioP1;P1;durP2;ratioP2;P2;SDS_P1;SDS_P2;PMS_P1;PMS_P2;Temp;Humidity;BMP_temperature;BMP_pressure;BME280_temperature;BME280_humidity;BME280_pressure;Samples;Min_cycle;Max_cycle;Signal;HPM_P1;HPM_P2
2023/10/04 00:00:54;;;;;;;8.43;5.57;;;;;;;-145.63;48.96;39221.78;5047365;28;20078;-72
2023/10/04 00:03:22;;;;;;;11.55;5.80;;;;;;;-145.63;49.16;39223.72;5065566;28;20033;-72
2023/10/04 00:05:48;;;;;;;12.27;5.72;;;;;;;-145.63;49.07;39208.06;5048877;28;20341;-73
2023/10/04 00:08:14;;;;;;;15.73;6.43;;;;;;;-145.63;49.02;39202.22;5057504;28;20044;-73
2023/10/04 00:10:39;;;;;;;11.68;6.22;;;;;;;-145.63;49.10;38889.31;5058529;28;20202;-72
2023/10/04 00:13:05;;;;;;;8.88;5.05;;;;;;;-145.63;49.15;39219.81;5044898;28;20436;-71
2023/10/04 00:15:31;;;;;;;9.88;5.50;;;;;;;-145.63;48.80;39188.53;5046204;28;20045;-72
2023/10/04 00:17:57;;;;;;;10.60;6.30;;;;;;;-145.63;49.23;39176.78;5046061;28;20025;-70
2023/10/04 00:20:32;;;;;;;8.60;5.40;;;;;;;-145.63;49.70;39227.63;5045970;28;20040;-71
2023/10/04 00:22:58;;;;;;;11.35;5.80;;;;;;;-145.63;49.71;39198.31;5055612;28;20029;-70
2023/10/04 00:25:23;;;;;;;15.77;6.05;;;;;;;-145.63;49.11;39210.03;5059298;28;20025;-69
2023/10/04 00:27:57;;;;;;;13.80;5.90;;;;;;;-145.63;49.06;39192.44;5045049;28;20029;-70
2023/10/04 00:30:28;;;;;;;8.07;5.18;;;;;;;-145.63;49.29;39204.16;5065905;28;20020;-71
2023/10/04 00:33:06;;;;;;;9.70;5.63;;;;;;;-145.63;49.59;39208.06;5046964;28;20068;-72
2023/10/04 00:35:32;;;;;;;10.98;6.45;;;;;;;-145.63;49.69;39172.88;5058511;28;20063;-71
2023/10/04 00:38:00;;;;;;;11.63;5.85;;;;;;;-145.63;49.38;39188.53;5054280;28;20024;-71
2023/10/04 00:40:31;;;;;;;11.82;6.30;;;;;;;-145.63;49.75;39192.44;5059904;28;20032;-72
2023/10/04 00:43:01;;;;;;;17.25;6.20;;;;;;;-145.63;49.23;39196.34;5045644;28;20022;-71
2023/10/04 00:45:32;;;;;;;9.07;5.68;;;;;;;-145.63;49.23;39202.22;5064582;28;20021;-71
2023/10/04 00:47:59;;;;;;;14.07;6.10;;;;;;;-145.63;49.89;39202.22;5047153;28;20135;-72
2023/10/04 00:50:32;;;;;;;10.93;6.55;;;;;;;-145.63;49.24;39196.34;5038634;28;20092;-71
2023/10/04 00:53:14;;;;;;;11.90;6.50;;;;;;;-145.63;49.64;39208.06;5039387;28;20032;-71
2023/10/04 00:55:45;;;;;;;10.43;6.07;;;;;;;-145.63;49.88;39219.81;5043877;28;20132;-70
2023/10/04 00:58:14;;;;;;;12.80;6.18;;;;;;;-145.63;50.26;39215.91;5030784;28;20055;-71
2023/10/04 01:00:44;;;;;;;14.77;6.35;;;;;;;-145.63;50.15;39221.78;5064153;28;20205;-72
2023/10/04 01:03:09;;;;;;;11.77;6.57;;;;;;;-145.63;50.38;38560.78;5045883;28;20026;-71
2023/10/04 01:05:45;;;;;;;13.05;6.50;;;;;;;-145.63;49.67;39204.16;5059543;28;20214;-71
2023/10/04 01:08:16;;;;;;;10.50;5.90;;;;;;;-145.63;49.66;39172.88;5032764;28;20057;-72
2023/10/04 01:10:44;;;;;;;12.75;6.55;;;;;;;-145.63;50.25;39225.69;5039893;28;20066;-72
2023/10/04 01:13:11;;;;;;;11.20;6.25;;;;;;;-145.63;50.34;38959.72;5062210;28;20387;-72
2023/10/04 01:15:39;;;;;;;12.70;6.32;;;;;;;-145.63;50.22;39221.78;5044637;28;20044;-72
2023/10/04 01:18:07;;;;;;;13.15;6.22;;;;;;;-145.63;50.59;39288.25;5054061;28;20064;-70
2023/10/04 01:20:35;;;;;;;13.00;6.35;;;;;;;-145.63;50.38;39223.72;5043654;28;20264;-71
2023/10/04 01:23:02;;;;;;;12.23;5.90;;;;;;;-145.63;50.06;39204.16;5054417;28;20021;-72
2023/10/04 01:25:35;;;;;;;13.23;6.70;;;;;;;-145.63;50.74;39217.84;5059178;28;20394;-72
2023/10/04 01:28:06;;;;;;;10.60;6.18;;;;;;;-145.63;50.37;39255.00;5044921;28;20239;-71
2023/10/04 01:30:32;;;;;;;;;;;;;;;-145.63;50.99;39196.34;5064041;28;20067;-70
2023/10/04 01:33:01;;;;;;;12.77;6.10;;;;;;;-145.63;50.85;39255.00;5046782;28;19909;-70
2023/10/04 01:35:27;;;;;;;14.00;6.45;;;;;;;-145.63;50.80;39237.41;5056051;28;20209;-70
2023/10/04 01:37:54;;;;;;;13.23;6.45;;;;;;;-145.63;50.65;39223.72;5053049;28;20028;-70
2023/10/04 01:40:26;;;;;;;11.20;6.22;;;;;;;-145.63;50.93;39213.94;5060508;28;20056;-70
2023/10/04 01:42:55;;;;;;;11.80;5.85;;;;;;;-145.63;50.48;39241.31;5043064;28;20345;-69
2023/10/04 01:45:22;;;;;;;9.38;5.90;;;;;;;-145.63;50.83;39227.63;5044371;28;20032;-70
2023/10/04 01:47:49;;;;;;;12.45;6.45;;;;;;;-145.63;51.45;39266.75;5060090;28;20070;-70
2023/10/04 01:50:15;;;;;;;11.45;6.43;;;;;;;-145.63;51.17;39255.00;5040456;28;20031;-71
2023/10/04 01:52:49;;;;;;;11.65;6.35;;;;;;;-145.63;51.47;39247.19;5041783;28;20099;-71
2023/10/04 01:55:17;;;;;;;11.45;6.78;;;;;;;-145.63;51.47;39223.72;5061064;28;20088;-72
2023/10/04 01:57:45;;;;;;;11.80;6.40;;;;;;;-145.63;51.68;39204.16;5042955;28;20135;-71
2023/10/04 02:00:17;;;;;;;10.68;7.00;;;;;;;-145.63;51.57;39229.59;5062391;28;20066;-71
2023/10/04 02:02:44;;;;;;;17.05;7.65;;;;;;;-145.63;51.08;39208.06;5048537;28;20033;-70
2023/10/04 02:05:10;;;;;;;13.20;6.63;;;;;;;-145.63;51.65;39204.16;5054556;28;20079;-70
2023/10/04 02:07:39;;;;;;;12.45;6.40;;;;;;;-145.63;51.43;39235.47;5057614;28;20089;-71
2023/10/04 02:10:17;;;;;;;13.48;6.70;;;;;;;-145.63;51.28;39258.94;5045453;28;20111;-70
2023/10/04 02:12:46;;;;;;;11.40;6.97;;;;;;;-145.63;51.25;39208.06;5063888;28;20066;-71
2023/10/04 02:15:17;;;;;;;13.65;6.70;;;;;;;-145.63;51.92;39249.16;5044511;28;20045;-69
2023/10/04 02:17:44;;;;;;;12.73;6.82;;;;;;;-145.63;51.06;39221.78;5050843;28;20033;-69
2023/10/04 02:20:23;;;;;;;11.95;6.88;;;;;;;-145.63;51.31;38451.28;5043849;28;20033;-70
2023/10/04 02:23:08;;;;;;;10.68;6.07;;;;;;;-145.63;51.45;39157.22;5052986;28;20025;-71
2023/10/04 02:25:34;;;;;;;13.45;6.63;;;;;;;-145.63;51.60;39190.47;5057815;28;20324;-71
2023/10/04 02:28:03;;;;;;;12.45;6.45;;;;;;;-145.63;51.04;39219.81;5044152;28;20325;-71
2023/10/04 02:30:29;;;;;;;15.15;8.98;;;;;;;-145.63;51.46;39215.91;5062325;28;20281;-72
2023/10/04 02:32:55;;;;;;;12.10;7.25;;;;;;;-145.63;51.58;39212.00;5046636;28;20037;-71
2023/10/04 02:35:28;;;;;;;10.70;6.28;;;;;;;-145.63;51.00;39231.53;5054906;28;20092;-70
2023/10/04 02:38:00;;;;;;;12.27;6.32;;;;;;;-145.63;51.78;39235.47;5050249;28;20123;-71
2023/10/04 02:40:33;;;;;;;12.15;6.57;;;;;;;-145.63;51.94;39233.50;5058727;28;20029;-70
2023/10/04 02:42:59;;;;;;;14.50;6.60;;;;;;;-145.63;51.35;39231.53;5042073;28;20195;-72
2023/10/04 02:45:26;;;;;;;11.35;6.47;;;;;;;-145.63;51.83;39243.28;5043203;28;20294;-68
2023/10/04 02:47:53;;;;;;;9.13;5.85;;;;;;;-145.63;51.27;39219.81;5057916;28;20032;-70
2023/10/04 02:50:20;;;;;;;11.00;5.70;;;;;;;-145.63;51.82;39251.09;5033945;28;20026;-69
2023/10/04 02:52:47;;;;;;;12.57;6.35;;;;;;;-145.63;51.34;39243.28;5045242;28;20260;-70
2023/10/04 02:55:17;;;;;;;12.95;6.22;;;;;;;-145.63;51.61;39235.47;5060890;28;20060;-71
2023/10/04 02:57:53;;;;;;;15.27;6.90;;;;;;;-145.63;52.50;39184.59;5042807;28;20033;-69
2023/10/04 03:00:20;;;;;;;12.02;6.75;;;;;;;-145.63;52.25;39235.47;5043245;28;20029;-72
2023/10/04 03:02:48;;;;;;;10.10;6.03;;;;;;;-145.63;51.45;39256.97;5042921;28;20092;-72
2023/10/04 03:05:20;;;;;;;11.13;6.47;;;;;;;-145.63;51.75;39212.00;5054156;28;20024;-72
2023/10/04 03:07:47;;;;;;;12.57;6.53;;;;;;;-145.63;51.70;39235.47;5055872;28;20033;-71
2023/10/04 03:10:23;;;;;;;10.18;6.13;;;;;;;-145.63;51.92;39231.53;5044018;28;20096;-71
2023/10/04 03:12:58;;;;;;;9.63;5.85;;;;;;;-145.63;51.83;39268.72;5062801;28;20032;-71
2023/10/04 03:15:27;;;;;;;13.48;7.00;;;;;;;-145.63;51.50;39241.31;5038561;28;20057;-72
2023/10/04 03:17:55;;;;;;;14.35;6.78;;;;;;;-145.63;51.26;39235.47;5050776;28;20095;-70
2023/10/04 03:20:28;;;;;;;13.32;6.15;;;;;;;-145.63;51.36;39260.88;5043136;28;20056;-72
2023/10/04 03:22:57;;;;;;;12.88;6.38;;;;;;;-145.63;52.28;39243.28;5050568;28;20040;-72
2023/10/04 03:25:29;;;;;;;14.35;6.18;;;;;;;-145.63;51.86;39243.28;5059237;28;20026;-72
2023/10/04 03:27:54;;;;;;;10.93;6.20;;;;;;;-145.63;51.84;39233.50;5043225;28;20029;-72
2023/10/04 03:30:21;;;;;;;11.00;5.90;;;;;;;-145.63;51.29;39262.84;5062522;28;20047;-69
2023/10/04 03:32:56;;;;;;;16.00;6.35;;;;;;;-145.63;51.35;39251.09;5047650;28;20158;-71
2023/10/04 03:35:24;;;;;;;14.73;6.72;;;;;;;-145.63;51.52;39260.88;5053950;28;20044;-72
2023/10/04 03:37:59;;;;;;;11.80;6.25;;;;;;;-145.63;51.66;39253.06;5035935;28;20076;-71
2023/10/04 03:40:34;;;;;;;10.75;6.88;;;;;;;-145.63;52.17;39241.31;5041562;28;20033;-70
2023/10/04 03:43:02;;;;;;;14.23;6.60;;;;;;;-145.63;52.01;39208.06;5043467;28;20030;-72
2023/10/04 03:45:30;;;;;;;15.05;7.25;;;;;;;-145.63;51.38;39264.78;5033380;28;20033;-70
2023/10/04 03:47:57;;;;;;;10.13;6.57;;;;;;;-145.63;51.79;39270.66;5054612;28;20048;-70
2023/10/04 03:50:24;;;;;;;14.52;6.93;;;;;;;-145.63;51.48;39204.16;5041646;28;20032;-71
2023/10/04 03:52:52;;;;;;;10.40;6.15;;;;;;;-145.63;51.83;39229.59;5041763;28;20028;-71
2023/10/04 03:55:18;;;;;;;13.27;6.65;;;;;;;-145.63;51.33;39270.66;5042699;28;20036;-71
2023/10/04 03:57:45;;;;;;;11.23;6.50;;;;;;;-145.63;51.64;39247.19;5041274;28;20041;-71
2023/10/04 04:00:17;;;;;;;10.73;6.35;;;;;;;-145.63;51.26;39223.72;5060475;28;20041;-71
2023/10/04 04:02:43;;;;;;;15.77;7.25;;;;;;;-145.63;51.49;39243.28;5046078;28;20053;-72
2023/10/04 04:05:14;;;;;;;9.75;6.55;;;;;;;-145.63;51.35;39419.31;5045422;28;20033;-71
2023/10/04 04:07:41;;;;;;;12.32;7.13;;;;;;;-145.63;50.97;39180.69;5047853;28;20103;-71
2023/10/04 04:10:08;;;;;;;13.13;6.57;;;;;;;-145.63;50.93;39343.03;5061636;28;20313;-72
2023/10/04 04:12:34;;;;;;;12.77;7.15;;;;;;;-145.63;50.87;39300.00;5042298;28;20037;-70
2023/10/04 04:15:08;;;;;;;14.00;7.03;;;;;;;-145.63;50.80;39229.59;5052808;28;20037;-72
2023/10/04 04:17:37;;;;;;;15.15;7.90;;;;;;;-145.63;50.41;39227.63;5043032;28;20079;-72
2023/10/04 04:20:17;;;;;;;14.88;6.72;;;;;;;-145.63;50.80;38992.97;5049462;28;20029;-72
2023/10/04 04:22:50;;;;;;;15.93;7.55;;;;;;;-145.63;50.45;39227.63;5056841;28;20029;-72
2023/10/04 04:25:19;;;;;;;12.00;7.28;;;;;;;-145.63;50.76;39239.38;5035743;28;20030;-73
2023/10/04 04:27:46;;;;;;;13.32;6.97;;;;;;;-145.63;50.93;39221.78;5045773;28;20029;-72
2023/10/04 04:30:18;;;;;;;11.18;7.38;;;;;;;-145.63;50.16;39212.00;5062248;28;20033;-71
2023/10/04 04:32:52;;;;;;;12.15;6.68;;;;;;;-145.63;50.87;39249.16;5050514;28;20029;-72
2023/10/04 04:36:09;;;;;;;11.43;6.78;;;;;;;-145.63;50.16;38396.53;5056002;28;20035;-72
2023/10/04 04:41:05;;;;;;;10.75;6.60;;;;;;;-145.63;50.00;39243.28;5043030;28;20258;-71
2023/10/04 04:43:37;;;;;;;14.52;6.95;;;;;;;-145.63;49.99;39145.50;5032849;28;20024;-70
2023/10/04 04:46:13;;;;;;;13.23;7.18;;;;;;;-145.63;50.11;39251.09;5045496;28;20037;-70
2023/10/04 04:48:40;;;;;;;11.20;6.28;;;;;;;-145.63;49.66;39217.84;5027218;28;20144;-68
2023/10/04 04:51:14;;;;;;;12.20;6.68;;;;;;;-145.63;49.88;39239.38;5039335;28;20127;-69
2023/10/04 04:53:45;;;;;;;14.20;6.88;;;;;;;-145.63;49.78;39227.63;5045372;28;20021;-71
2023/10/04 04:56:13;;;;;;;14.47;7.20;;;;;;;-145.63;49.50;39235.47;5034527;28;20027;-70
2023/10/04 04:58:39;;;;;;;14.32;7.47;;;;;;;-145.63;49.61;39249.16;5050012;28;20506;-69
2023/10/04 05:01:09;;;;;;;14.52;7.55;;;;;;;-145.63;49.52;39217.84;5065056;28;20325;-69
2023/10/04 05:03:34;;;;;;;12.52;7.07;;;;;;;-145.63;49.29;39215.91;5045250;28;20026;-69
2023/10/04 05:06:00;;;;;;;15.07;7.05;;;;;;;-145.63;49.13;39182.66;5059742;28;20035;-69
2023/10/04 05:08:26;;;;;;;12.85;7.32;;;;;;;-145.63;48.69;39184.59;5053598;28;20100;-69
2023/10/04 05:10:55;;;;;;;16.65;7.45;;;;;;;-145.63;49.52;39245.25;5051206;28;20098;-70
2023/10/04 05:13:22;;;;;;;15.80;7.47;;;;;;;-145.63;49.09;39219.81;5062651;28;20021;-71
2023/10/04 05:15:49;;;;;;;17.27;7.93;;;;;;;-145.63;49.21;39223.72;5043204;28;20045;-70
2023/10/04 05:18:17;;;;;;;15.82;7.25;;;;;;;-145.63;49.15;39225.69;5033800;28;20239;-69
2023/10/04 05:20:45;;;;;;;14.10;6.78;;;;;;;-145.63;48.60;39215.91;5054238;28;20212;-70
2023/10/04 05:23:11;;;;;;;13.95;6.72;;;;;;;-145.63;48.37;39217.84;5051579;28;20025;-70
2023/10/04 05:25:37;;;;;;;12.43;7.25;;;;;;;-145.63;48.91;39227.63;5048850;28;20024;-68
2023/10/04 05:28:11;;;;;;;12.10;7.43;;;;;;;-145.63;48.77;39274.56;5064515;28;20028;-68
2023/10/04 05:30:41;;;;;;;13.68;7.15;;;;;;;-145.63;48.18;39204.16;5024774;28;20036;-70
2023/10/04 05:33:08;;;;;;;22.67;7.50;;;;;;;-145.63;48.42;39188.53;5057765;28;20032;-70
2023/10/04 05:35:35;;;;;;;12.27;6.78;;;;;;;-145.63;48.33;39206.13;5052206;28;20025;-69
2023/10/04 05:38:04;;;;;;;14.50;7.30;;;;;;;-145.63;47.67;39159.19;5051669;28;20021;-70
2023/10/04 05:40:38;;;;;;;11.85;7.28;;;;;;;-145.63;47.72;39188.53;5060873;28;20029;-69
2023/10/04 05:43:08;;;;;;;16.83;7.88;;;;;;;-145.63;47.41;39168.97;5042893;28;20040;-70
2023/10/04 05:45:34;;;;;;;15.75;6.85;;;;;;;-145.63;47.68;39168.97;5024507;28;20161;-69
2023/10/04 05:48:00;;;;;;;13.02;7.68;;;;;;;-145.63;46.72;39165.06;5047509;28;20030;-70
2023/10/04 05:50:26;;;;;;;15.65;7.28;;;;;;;-145.63;47.20;39151.38;5036665;28;20038;-71
2023/10/04 05:52:53;;;;;;;15.32;7.47;;;;;;;-145.63;47.26;39167.00;5036681;28;20025;-69
2023/10/04 05:55:21;;;;;;;17.55;7.55;;;;;;;-145.63;46.34;39151.38;5044741;28;20041;-69
2023/10/04 05:57:50;;;;;;;14.90;7.00;;;;;;;-145.63;46.34;39145.50;5043518;28;20040;-71
2023/10/04 06:00:40;;;;;;;12.75;6.82;;;;;;;-145.63;46.53;39131.81;5058856;28;20017;-70
2023/10/04 06:03:11;;;;;;;12.05;7.07;;;;;;;-145.63;46.50;39153.31;5041223;28;20041;-71
2023/10/04 06:05:39;;;;;;;;;;;;;;;-145.63;45.58;39106.38;5056545;28;20078;-72
2023/10/04 06:08:06;;;;;;;16.85;7.82;;;;;;;-145.63;45.85;39125.94;5055061;28;20145;-71
2023/10/04 06:10:33;;;;;;;21.30;8.73;;;;;;;-145.63;45.49;39127.91;5045380;28;20037;-72
2023/10/04 06:12:59;;;;;;;17.45;7.90;;;;;;;-145.63;45.09;39137.69;5063788;28;20033;-71
2023/10/04 06:15:25;;;;;;;16.95;7.22;;;;;;;-145.63;45.17;39135.72;5045071;28;20052;-71
2023/10/04 06:17:52;;;;;;;14.25;7.85;;;;;;;-145.63;45.43;39090.75;5049660;28;20029;-70
2023/10/04 06:20:28;;;;;;;16.33;8.13;;;;;;;-145.63;44.66;39075.09;5052957;28;20025;-72
2023/10/04 06:22:56;;;;;;;14.73;7.72;;;;;;;-145.63;44.81;39127.91;5057401;28;20029;-72
2023/10/04 06:25:23;;;;;;;13.77;6.90;;;;;;;-145.63;44.96;39114.22;5045179;28;20025;-72
2023/10/04 06:27:55;;;;;;;15.15;7.47;;;;;;;-145.63;44.23;39174.84;5045389;28;20060;-71
2023/10/04 06:30:23;;;;;;;18.95;7.15;;;;;;;-145.63;44.40;39110.28;5045399;28;20033;-71
2023/10/04 06:32:50;;;;;;;17.73;7.28;;;;;;;-145.63;44.28;39127.91;5055535;28;20032;-70
2023/10/04 06:35:17;;;;;;;16.45;7.45;;;;;;;-145.63;44.25;39157.22;5054094;28;20025;-70
2023/10/04 06:37:43;;;;;;;14.93;7.13;;;;;;;-145.63;43.89;39118.13;5046206;28;20277;-69
2023/10/04 06:40:19;;;;;;;12.88;7.18;;;;;;;-145.63;44.44;39053.59;5062191;28;20029;-70
2023/10/04 06:42:49;;;;;;;23.45;7.65;;;;;;;-145.63;43.85;39106.38;5038673;28;20105;-71
2023/10/04 06:45:19;;;;;;;14.68;7.40;;;;;;;-145.63;43.42;39059.44;5042728;28;20033;-71
2023/10/04 06:47:49;;;;;;;23.38;8.15;;;;;;;-145.63;43.36;39108.34;5042962;28;20025;-70
2023/10/04 06:50:20;;;;;;;15.23;7.45;;;;;;;-145.63;43.20;39086.81;5051856;28;20096;-70
2023/10/04 06:52:47;;;;;;;20.25;7.70;;;;;;;-145.63;43.24;39112.25;5057406;28;20033;-70
2023/10/04 06:55:14;;;;;;;14.98;7.18;;;;;;;-145.63;43.02;39122.03;5063077;28;20088;-72
2023/10/04 06:57:40;;;;;;;14.60;6.78;;;;;;;-145.63;43.15;39061.41;5041725;28;20033;-72
2023/10/04 07:00:14;;;;;;;16.13;7.93;;;;;;;-145.63;42.86;39065.31;5041923;28;20087;-71
2023/10/04 07:02:47;;;;;;;18.48;7.70;;;;;;;-145.63;43.10;39125.94;5042915;28;20032;-70
2023/10/04 07:05:16;;;;;;;17.37;8.07;;;;;;;-145.63;42.99;39084.88;5051331;28;20339;-72
2023/10/04 07:07:43;;;;;;;16.42;6.72;;;;;;;-145.63;43.34;39129.84;5058524;28;20025;-71
2023/10/04 07:10:13;;;;;;;19.98;8.10;;;;;;;-145.63;42.44;39082.91;5042668;28;20306;-70
2023/10/04 07:12:39;;;;;;;23.08;8.25;;;;;;;-145.63;42.50;39108.34;5021528;28;20037;-72
2023/10/04 07:15:06;;;;;;;19.63;8.07;;;;;;;-145.63;42.56;39055.53;5053644;28;20053;-71
2023/10/04 07:17:32;;;;;;;19.75;7.30;;;;;;;-145.63;42.40;39067.28;5049015;28;20025;-71
2023/10/04 07:19:58;;;;;;;19.15;7.70;;;;;;;-145.63;42.31;39055.53;5048847;28;20031;-71
2023/10/04 07:22:29;;;;;;;18.38;7.68;;;;;;;-145.63;42.60;39043.81;5043669;28;20025;-70
2023/10/04 07:25:07;;;;;;;11.98;6.90;;;;;;;-145.63;42.05;39061.41;5062809;28;20041;-71
2023/10/04 07:27:33;;;;;;;15.52;7.45;;;;;;;-145.63;42.52;39086.81;5043339;28;20036;-70
2023/10/04 07:29:59;;;;;;;17.85;8.00;;;;;;;-145.63;41.97;39014.47;5055900;28;20021;-72
2023/10/04 07:32:25;;;;;;;20.20;7.78;;;;;;;-145.63;41.89;39059.44;5032158;28;20034;-70
2023/10/04 07:34:51;;;;;;;14.93;7.43;;;;;;;-145.63;42.06;39041.84;5032675;28;20029;-69
2023/10/04 07:37:16;;;;;;;22.90;7.75;;;;;;;-145.63;41.35;39055.53;5045497;28;20025;-67
2023/10/04 07:39:42;;;;;;;26.05;8.05;;;;;;;-145.63;41.30;39032.06;5062522;28;20096;-69
2023/10/04 07:42:08;;;;;;;17.45;8.05;;;;;;;-145.63;41.15;39067.28;5046951;28;20067;-69
2023/10/04 07:44:33;;;;;;;18.88;7.88;;;;;;;-145.63;41.27;39059.44;5041404;28;20025;-70
2023/10/04 07:46:59;;;;;;;17.85;7.68;;;;;;;-145.63;40.91;39024.25;5048596;28;20336;-69
2023/10/04 07:49:26;;;;;;;18.65;7.28;;;;;;;-145.63;41.03;39045.75;5060204;28;20028;-69
2023/10/04 07:51:52;;;;;;;16.90;8.15;;;;;;;-145.63;41.25;39006.66;5042826;28;20041;-69
2023/10/04 07:54:19;;;;;;;22.77;8.45;;;;;;;-145.63;41.14;38987.09;5058422;28;20024;-70
2023/10/04 07:56:46;;;;;;;14.30;7.00;;;;;;;-145.63;41.25;39016.44;5049130;28;20307;-69
2023/10/04 07:59:12;;;;;;;16.75;7.78;;;;;;;-145.63;41.11;38977.31;5053031;28;20033;-68
2023/10/04 08:01:41;;;;;;;22.17;8.00;;;;;;;-145.63;40.57;38983.19;5063304;28;20092;-68
2023/10/04 08:04:07;;;;;;;19.58;8.18;;;;;;;-145.63;40.50;38938.19;5046316;28;20083;-68
2023/10/04 08:06:35;;;;;;;15.18;7.75;;;;;;;-145.63;40.10;39063.34;5046107;28;20255;-69
2023/10/04 08:09:04;;;;;;;14.65;7.40;;;;;;;-145.63;39.86;38953.84;5060423;28;20076;-68
2023/10/04 08:11:33;;;;;;;19.35;7.75;;;;;;;-145.63;40.17;38934.28;5055928;28;20028;-68
2023/10/04 08:14:00;;;;;;;22.25;7.70;;;;;;;-145.63;40.19;38977.31;5050366;28;20083;-68
2023/10/04 08:16:27;;;;;;;19.02;9.40;;;;;;;-145.63;39.83;38967.53;5056672;28;20180;-68
2023/10/04 08:18:56;;;;;;;15.48;7.72;;;;;;;-145.63;39.72;38994.91;5050012;28;20033;-68
2023/10/04 08:21:23;;;;;;;18.27;7.25;;;;;;;-145.63;39.78;38961.66;5063339;28;20024;-68
2023/10/04 08:23:49;;;;;;;19.75;8.35;;;;;;;-145.63;39.40;38967.53;5053185;28;20071;-68
2023/10/04 08:26:16;;;;;;;18.13;8.13;;;;;;;-145.63;39.54;38973.41;5046331;28;20036;-68
2023/10/04 08:28:43;;;;;;;20.10;7.13;;;;;;;-145.63;39.35;38971.44;5044498;28;20018;-69
2023/10/04 08:31:11;;;;;;;20.85;7.55;;;;;;;-145.63;39.43;38957.75;5045855;28;20290;-68
2023/10/04 08:33:37;;;;;;;19.77;8.32;;;;;;;-145.63;39.31;38992.97;5064308;28;20028;-67
2023/10/04 08:36:08;;;;;;;16.90;8.27;;;;;;;-145.63;39.15;38989.03;5051302;28;20047;-69
2023/10/04 08:38:34;;;;;;;;;;;;;;;-145.63;39.05;38985.13;5055472;28;20025;-68
2023/10/04 08:41:02;;;;;;;18.95;7.47;;;;;;;-145.63;39.06;38965.56;5059950;28;19943;-68
2023/10/04 08:43:32;;;;;;;18.63;8.10;;;;;;;-145.63;38.97;38940.16;5045429;28;20084;-67
2023/10/04 08:45:58;;;;;;;20.17;7.72;;;;;;;-145.63;38.69;38957.75;5027848;28;20065;-69
2023/10/04 08:48:26;;;;;;;20.35;7.70;;;;;;;-145.63;38.79;38914.72;5062574;28;20036;-68
2023/10/04 08:51:07;;;;;;;18.17;7.45;;;;;;;-145.63;37.87;38899.09;5052647;28;20040;-67
2023/10/04 08:53:56;;;;;;;14.85;7.28;;;;;;;-145.63;37.61;38881.50;5055159;28;20391;-70
2023/10/04 08:56:27;;;;;;;23.98;8.27;;;;;;;-145.63;37.97;38875.63;5056747;28;20045;-68
2023/10/04 08:58:55;;;;;;;18.47;7.67;;;;;;;-145.63;37.29;38836.50;5049151;28;20096;-68
2023/10/04 09:01:22;;;;;;;24.13;7.68;;;;;;;-145.63;37.42;38885.41;5064943;28;20805;-68
2023/10/04 09:03:51;;;;;;;18.98;8.02;;;;;;;-145.63;36.50;38840.44;5051067;28;20033;-68
2023/10/04 09:06:17;;;;;;;14.90;7.70;;;;;;;-145.63;36.62;38918.66;5046758;28;20025;-67
2023/10/04 09:08:46;;;;;;;18.02;7.70;;;;;;;-145.63;36.07;38773.94;5055518;28;20025;-69
2023/10/04 09:11:12;;;;;;;20.30;7.63;;;;;;;-145.63;36.38;38721.13;5057659;28;20018;-68
2023/10/04 09:13:49;;;;;;;19.00;7.47;;;;;;;-145.63;35.86;38650.75;5045447;28;20021;-67
2023/10/04 09:16:24;;;;;;;17.23;7.30;;;;;;;-145.63;35.81;38785.66;5043618;28;20041;-67
2023/10/04 09:19:14;;;;;;;18.77;7.88;;;;;;;-145.63;36.08;38848.25;5048176;28;20112;-67
2023/10/04 09:21:41;;;;;;;18.98;7.93;;;;;;;-145.63;36.21;38803.28;5060976;28;20071;-67
2023/10/04 09:24:09;;;;;;;27.02;8.75;;;;;;;-145.63;36.36;38836.50;5050071;28;20053;-69
2023/10/04 09:26:54;;;;;;;19.23;7.47;;;;;;;-145.63;36.65;38832.59;5054511;28;20092;-69
2023/10/04 09:29:33;;;;;;;20.40;7.47;;;;;;;-145.63;36.32;38822.81;5056564;28;20037;-69
2023/10/04 09:31:59;;;;;;;22.88;7.72;;;;;;;-145.63;36.76;38830.66;5049508;28;20095;-69
2023/10/04 09:34:28;;;;;;;22.02;7.90;;;;;;;-145.63;36.80;38824.78;5063802;28;20044;-69
2023/10/04 09:36:54;;;;;;;25.42;7.53;;;;;;;-145.63;36.45;38766.13;5044760;28;20026;-68
2023/10/04 09:39:28;;;;;;;23.23;7.82;;;;;;;-145.63;36.68;38797.41;5044461;28;20056;-70
2023/10/04 09:41:56;;;;;;;21.15;8.38;;;;;;;-145.63;36.66;38738.75;5043411;28;20071;-67
2023/10/04 09:44:27;;;;;;;18.80;7.32;;;;;;;-145.63;36.35;38815.00;5046328;28;20052;-69
2023/10/04 09:46:56;;;;;;;19.63;8.27;;;;;;;-145.63;36.61;38762.22;5052168;28;20387;-68
2023/10/04 09:49:31;;;;;;;21.65;7.72;;;;;;;-145.63;36.14;38760.25;5062844;28;20036;-69
2023/10/04 09:52:00;;;;;;;19.50;7.82;;;;;;;-145.63;36.63;38793.50;5049816;28;20088;-69
2023/10/04 09:54:30;;;;;;;22.73;7.20;;;;;;;-145.63;35.64;38762.22;5059520;28;20278;-68
2023/10/04 09:56:57;;;;;;;16.25;7.60;;;;;;;-145.63;36.16;38781.75;5052459;28;20021;-69
2023/10/04 09:59:23;;;;;;;17.85;7.90;;;;;;;-145.63;36.11;38789.59;5056238;28;20036;-68
2023/10/04 10:01:54;;;;;;;19.27;8.32;;;;;;;-145.63;36.32;38797.41;5048949;28;20226;-69
2023/10/04 10:04:30;;;;;;;18.17;7.47;;;;;;;-145.63;36.67;38787.63;5062715;28;20210;-68
2023/10/04 10:07:09;;;;;;;25.58;8.57;;;;;;;-145.63;36.25;38775.91;5023099;28;20241;-68
2023/10/04 10:10:01;;;;;;;19.33;7.75;;;;;;;-145.63;36.10;38781.75;5059517;28;20046;-69
2023/10/04 10:12:30;;;;;;;16.27;7.50;;;;;;;-145.63;36.17;38842.38;5056463;28;20028;-70
2023/10/04 10:15:00;;;;;;;14.95;7.65;;;;;;;-145.63;36.29;38836.50;5049678;28;20091;-68
2023/10/04 10:17:27;;;;;;;22.95;7.95;;;;;;;-145.63;36.15;38844.34;5052009;28;20024;-67
2023/10/04 10:19:55;;;;;;;24.25;7.72;;;;;;;-145.63;36.54;38887.34;5058879;28;20232;-70
2023/10/04 10:22:21;;;;;;;27.75;7.93;;;;;;;-145.63;36.53;38824.78;5043862;28;20025;-70
2023/10/04 10:24:55;;;;;;;15.68;7.68;;;;;;;-145.63;36.73;38799.34;5061116;28;20203;-69
2023/10/04 10:27:28;;;;;;;16.30;7.70;;;;;;;-145.63;36.23;38846.28;5047844;28;20021;-69
2023/10/04 10:30:07;;;;;;;17.13;7.45;;;;;;;-145.63;36.16;38773.94;5054020;28;20025;-70
2023/10/04 10:32:33;;;;;;;25.30;8.02;;;;;;;-145.63;36.77;38793.50;5059185;28;20028;-68
2023/10/04 10:35:08;;;;;;;17.38;7.80;;;;;;;-145.63;36.40;38738.75;5058028;28;20032;-69
2023/10/04 10:37:38;;;;;;;17.27;7.25;;;;;;;-145.63;36.27;38789.59;5044247;28;20053;-68
2023/10/04 10:40:14;;;;;;;18.77;7.18;;;;;;;-145.63;35.83;38820.88;5063398;28;20025;-67
2023/10/04 10:43:11;;;;;;;18.67;7.78;;;;;;;-145.63;36.33;38838.47;5043728;28;20068;-67
2023/10/04 10:45:37;;;;;;;17.08;7.93;;;;;;;-145.63;36.33;38854.13;5043700;28;20025;-69
2023/10/04 10:48:08;;;;;;;14.20;7.88;;;;;;;-145.63;37.05;38893.22;5056634;28;20032;-69
2023/10/04 10:50:34;;;;;;;13.18;7.13;;;;;;;-145.63;36.90;38809.13;5054156;28;20102;-72
2023/10/04 10:53:10;;;;;;;20.00;8.50;;;;;;;-145.63;36.25;38861.94;5046743;28;20105;-68
2023/10/04 10:55:42;;;;;;;19.85;8.52;;;;;;;-145.63;36.78;38830.66;5060185;28;20029;-71
2023/10/04 10:58:08;;;;;;;18.42;8.45;;;;;;;-145.63;36.76;38801.31;5050197;28;20031;-68
2023/10/04 11:00:35;;;;;;;15.50;8.05;;;;;;;-145.63;36.95;38850.19;5045518;28;20025;-71
2023/10/04 11:03:05;;;;;;;19.33;8.15;;;;;;;-145.63;37.01;38891.28;5046020;28;20301;-71
2023/10/04 11:05:30;;;;;;;15.63;7.82;;;;;;;-145.63;37.42;38836.50;5050674;28;20025;-69
2023/10/04 11:07:57;;;;;;;17.50;7.93;;;;;;;-145.63;36.77;38856.06;5046922;28;20024;-68
2023/10/04 11:10:25;;;;;;;15.00;8.45;;;;;;;-145.63;37.11;38652.69;5063170;28;20250;-69
2023/10/04 11:12:55;;;;;;;18.40;8.05;;;;;;;-145.63;36.75;38815.00;5043745;28;20025;-71
2023/10/04 11:15:27;;;;;;;14.10;8.02;;;;;;;-145.63;37.41;38836.50;5058430;28;20055;-69
2023/10/04 11:17:54;;;;;;;16.60;7.70;;;;;;;-145.63;36.97;38891.28;5046572;28;20038;-70
2023/10/04 11:20:21;;;;;;;23.23;8.73;;;;;;;-145.63;37.13;38850.19;5042952;28;20083;-74
2023/10/04 11:22:51;;;;;;;17.13;7.43;;;;;;;-145.63;37.40;38834.56;5045277;28;20037;-69